Time;durP1;ratioP1;P1;durP2;ratioP2;P2;SDS_P1;SDS_P2;PMS_P1;PMS_P2;Temp;Humidity;BMP_temperature;BMP_pressure;BME280_temperature;BME280_humidity;BME280_pressure;Samples;Min_cycle;Max_cycle;Signal;HPM_P1;HPM_P2
2021/08/10 04:31:45;;;;;;;3.83;3.17;;;13.20;99.90;;;;;;5463446;23;20495;-77
2021/08/10 04:34:11;;;;;;;4.20;3.57;;;13.20;99.90;;;;;;4935285;29;20429;-80
2021/08/10 04:36:36;;;;;;;4.70;3.07;;;13.30;99.90;;;;;;4935452;29;20653;-80
2021/08/10 04:39:02;;;;;;;4.87;3.53;;;13.30;99.90;;;;;;4925190;29;20185;-77
2021/08/10 04:41:28;;;;;;;2.93;2.73;;;13.40;99.90;;;;;;4935905;29;20717;-77
2021/08/10 04:43:54;;;;;;;3.97;3.30;;;13.50;99.90;;;;;;4936674;29;20181;-78
2021/08/10 04:46:22;;;;;;;4.90;3.60;;;13.60;99.90;;;;;;4936187;29;20237;-79
2021/08/10 04:48:48;;;;;;;3.53;3.23;;;13.60;99.90;;;;;;4936478;29;20420;-79
2021/08/10 04:51:13;;;;;;;4.87;4.40;;;13.70;99.90;;;;;;4936229;29;20822;-77
2021/08/10 04:53:40;;;;;;;4.00;3.17;;;13.80;99.90;;;;;;4936362;29;20181;-77
2021/08/10 04:56:06;;;;;;;5.03;3.80;;;13.90;99.90;;;;;;4937382;29;20184;-80
2021/08/10 04:58:32;;;;;;;7.47;4.10;;;13.90;99.90;;;;;;4934409;29;20425;-78
2021/08/10 05:00:57;;;;;;;5.20;4.70;;;14.00;99.90;;;;;;4934665;29;20568;-76
2021/08/10 05:03:23;;;;;;;6.47;4.00;;;14.10;99.90;;;;;;4935340;29;20433;-76
2021/08/10 05:05:48;;;;;;;6.03;3.90;;;14.10;99.90;;;;;;4935817;29;20181;-75
2021/08/10 05:08:15;;;;;;;6.93;5.10;;;14.10;99.90;;;;;;4935540;29;20189;-75
2021/08/10 05:10:42;;;;;;;4.60;4.20;;;14.20;99.90;;;;;;4935544;29;20212;-77
2021/08/10 05:13:07;;;;;;;6.30;5.40;;;14.30;99.90;;;;;;4935539;29;20409;-77
2021/08/10 05:15:33;;;;;;;4.80;4.10;;;14.30;99.90;;;;;;4935618;29;20786;-76
2021/08/10 05:17:59;;;;;;;5.37;3.93;;;14.40;99.90;;;;;;4935551;29;20647;-77
2021/08/10 05:20:24;;;;;;;7.73;2.83;;;14.50;99.90;;;;;;4935217;29;20612;-77
2021/08/10 05:22:50;;;;;;;4.10;3.43;;;14.60;99.90;;;;;;4935349;29;20211;-77
2021/08/10 05:25:15;;;;;;;7.63;3.97;;;14.60;99.90;;;;;;4935244;29;20185;-76
2021/08/10 05:27:41;;;;;;;9.53;4.30;;;14.70;99.90;;;;;;4935328;29;20169;-76
2021/08/10 05:30:07;;;;;;;6.47;4.60;;;14.80;99.90;;;;;;4933918;29;20260;-77
2021/08/10 05:32:33;;;;;;;6.80;3.37;;;14.90;99.90;;;;;;4934537;29;20218;-75
2021/08/10 05:34:58;;;;;;;3.30;2.97;;;15.00;99.90;;;;;;4935314;29;20417;-76
2021/08/10 05:37:24;;;;;;;6.53;3.20;;;15.10;99.90;;;;;;4935115;29;20213;-75
2021/08/10 05:39:49;;;;;;;4.73;3.40;;;15.20;99.90;;;;;;4935132;29;20253;-76
2021/08/10 05:42:15;;;;;;;4.13;3.27;;;15.30;99.90;;;;;;4934636;29;20204;-77
2021/08/10 05:44:41;;;;;;;2.93;2.30;;;15.40;99.90;;;;;;4935087;29;20583;-77
2021/08/10 05:47:06;;;;;;;3.17;2.80;;;15.50;99.90;;;;;;4935304;29;20205;-77
2021/08/10 05:49:33;;;;;;;6.43;3.10;;;15.60;99.90;;;;;;4933451;29;20566;-76
2021/08/10 05:51:58;;;;;;;5.20;3.27;;;15.70;99.90;;;;;;4934433;29;20213;-77
2021/08/10 05:54:24;;;;;;;3.30;3.03;;;15.80;99.90;;;;;;4934806;29;20444;-77
2021/08/10 05:56:49;;;;;;;4.57;3.13;;;15.90;99.90;;;;;;4935043;29;20177;-77
2021/08/10 05:59:15;;;;;;;3.87;3.53;;;15.90;99.90;;;;;;4934774;29;20654;-77
2021/08/10 06:01:41;;;;;;;5.40;3.33;;;16.00;99.90;;;;;;4935143;29;20227;-77
2021/08/10 06:04:06;;;;;;;4.13;2.70;;;16.10;99.90;;;;;;4934784;29;20180;-77
2021/08/10 06:06:34;;;;;;;3.57;2.90;;;16.10;99.90;;;;;;4934846;29;20843;-77
2021/08/10 06:09:01;;;;;;;4.30;3.10;;;16.20;99.90;;;;;;4934786;29;20722;-75
2021/08/10 06:11:27;;;;;;;5.77;2.93;;;16.30;99.90;;;;;;4934319;29;20452;-74
2021/08/10 06:13:52;;;;;;;6.10;2.90;;;16.40;99.90;;;;;;4934516;29;20413;-77
2021/08/10 06:16:18;;;;;;;9.27;3.90;;;16.50;99.90;;;;;;4934501;29;20181;-77
2021/08/10 06:18:43;;;;;;;9.93;3.07;;;16.60;99.90;;;;;;4934868;29;20178;-78
2021/08/10 06:21:09;;;;;;;4.33;2.60;;;16.70;99.90;;;;;;4934447;29;20351;-77
2021/08/10 06:23:35;;;;;;;9.87;3.00;;;16.80;99.90;;;;;;4933325;29;20264;-77
2021/08/10 06:26:00;;;;;;;5.77;3.00;;;16.90;99.90;;;;;;4934777;29;20178;-77
2021/08/10 06:28:26;;;;;;;8.37;3.13;;;17.00;99.90;;;;;;4934692;29;20578;-77
2021/08/10 06:30:51;;;;;;;6.53;3.10;;;17.10;99.90;;;;;;4934468;29;20249;-78
2021/08/10 06:33:17;;;;;;;3.30;2.60;;;17.20;99.90;;;;;;4934242;29;20248;-78
2021/08/10 06:35:42;;;;;;;6.27;3.27;;;17.30;99.90;;;;;;4934501;29;20718;-78
2021/08/10 06:38:08;;;;;;;11.13;2.90;;;17.50;99.90;;;;;;4935155;29;20181;-78
2021/08/10 06:40:33;;;;;;;3.93;2.87;;;17.70;99.90;;;;;;4935294;29;20288;-78
2021/08/10 06:42:59;;;;;;;6.60;3.10;;;17.80;99.90;;;;;;4934751;29;20608;-78
2021/08/10 06:45:25;;;;;;;3.70;2.57;;;18.00;99.90;;;;;;4934310;29;20224;-77
2021/08/10 06:47:52;;;;;;;3.53;2.43;;;18.50;99.90;;;;;;4934617;29;20600;-77
2021/08/10 06:50:18;;;;;;;3.93;2.97;;;19.30;99.90;;;;;;4934285;29;20278;-77
2021/08/10 06:52:46;;;;;;;3.13;2.37;;;20.20;99.90;;;;;;4934548;29;20520;-77
2021/08/10 06:55:11;;;;;;;1.87;1.70;;;20.70;99.90;;;;;;4933438;29;20427;-78
2021/08/10 06:57:38;;;;;;;7.70;2.73;;;20.90;99.90;;;;;;4934535;29;20429;-78
2021/08/10 07:00:06;;;;;;;3.70;2.27;;;20.90;99.90;;;;;;4935578;29;20197;-76
2021/08/10 07:02:34;;;;;;;3.13;2.23;;;20.80;99.90;;;;;;4932410;29;20442;-77
2021/08/10 07:05:00;;;;;;;2.13;1.80;;;20.70;99.90;;;;;;4936042;29;20904;-77
2021/08/10 07:07:25;;;;;;;7.70;2.20;;;20.70;99.90;;;;;;4936562;29;20888;-77
2021/08/10 07:09:51;;;;;;;1.97;1.83;;;20.60;99.90;;;;;;4936716;29;20513;-77
2021/08/10 07:12:16;;;;;;;4.00;2.30;;;20.60;99.90;;;;;;4937578;29;20436;-78
2021/08/10 07:14:42;;;;;;;4.00;2.00;;;20.70;99.90;;;;;;4938017;29;20185;-77
2021/08/10 07:17:07;;;;;;;8.30;2.10;;;20.80;99.90;;;;;;4938027;29;20185;-82
2021/08/10 07:19:33;;;;;;;4.93;2.80;;;21.10;99.90;;;;;;4937947;29;20189;-82
2021/08/10 07:21:59;;;;;;;9.60;2.77;;;21.30;99.90;;;;;;4937850;29;20212;-80
2021/08/10 07:24:25;;;;;;;7.80;3.03;;;21.20;99.90;;;;;;4938025;29;20245;-82
2021/08/10 07:26:52;;;;;;;5.73;2.43;;;21.30;99.90;;;;;;4938280;29;20185;-82
2021/08/10 07:29:18;;;;;;;4.97;2.53;;;21.20;99.90;;;;;;4938003;29;20643;-81
2021/08/10 07:31:43;;;;;;;4.40;3.00;;;21.20;99.90;;;;;;4938104;29;20511;-81
2021/08/10 07:34:09;;;;;;;6.47;2.67;;;21.30;99.90;;;;;;4937950;29;20666;-82
2021/08/10 07:36:35;;;;;;;5.50;2.60;;;21.30;99.90;;;;;;4937546;29;20221;-82
2021/08/10 07:39:00;;;;;;;6.03;2.90;;;21.50;99.90;;;;;;4937746;29;20609;-82
2021/08/10 07:41:26;;;;;;;5.07;3.30;;;21.70;99.90;;;;;;4937391;29;20322;-82
2021/08/10 07:43:51;;;;;;;6.50;2.87;;;22.00;99.90;;;;;;4937569;29;20184;-82
2021/08/10 07:46:17;;;;;;;12.60;3.90;;;22.10;99.90;;;;;;4937379;29;20241;-82
2021/08/10 07:48:42;;;;;;;2.60;2.10;;;22.40;99.90;;;;;;4937491;29;20173;-82
2021/08/10 07:51:08;;;;;;;5.30;2.83;;;22.40;99.90;;;;;;4937449;29;20201;-82
2021/08/10 07:53:33;;;;;;;1.70;1.60;;;22.50;99.90;;;;;;4937190;29;20181;-82
2021/08/10 07:55:59;;;;;;;6.30;2.80;;;22.70;99.90;;;;;;4937548;29;20223;-82
2021/08/10 07:58:24;;;;;;;4.90;2.90;;;23.30;99.90;;;;;;4937394;29;20503;-82
2021/08/10 08:00:50;;;;;;;3.60;2.07;;;23.70;99.90;;;;;;4937363;29;20345;-82
2021/08/10 08:03:16;;;;;;;3.67;2.23;;;23.60;99.90;;;;;;4937322;29;20539;-82
2021/08/10 08:05:41;;;;;;;6.30;2.87;;;23.70;99.90;;;;;;4937515;29;20187;-82
2021/08/10 08:08:07;;;;;;;8.63;2.43;;;23.60;99.90;;;;;;4936140;29;20276;-82
2021/08/10 08:10:32;;;;;;;5.30;2.30;;;23.70;99.90;;;;;;4937491;29;20189;-82
2021/08/10 08:12:58;;;;;;;7.40;2.07;;;24.00;99.90;;;;;;4937550;29;20201;-82
2021/08/10 08:15:24;;;;;;;5.43;2.37;;;24.30;99.90;;;;;;4936593;29;20573;-83
2021/08/10 08:17:49;;;;;;;2.60;2.20;;;24.70;99.90;;;;;;4937053;29;20468;-82
2021/08/10 08:20:17;;;;;;;3.17;2.40;;;24.90;99.90;;;;;;4936988;29;20204;-82
2021/08/10 08:22:43;;;;;;;2.83;2.40;;;24.90;99.90;;;;;;4936694;29;20193;-82
2021/08/10 08:25:09;;;;;;;2.63;2.13;;;24.80;99.90;;;;;;4937001;29;20989;-82
2021/08/10 08:27:34;;;;;;;4.50;2.37;;;24.60;99.90;;;;;;4936954;29;20213;-82
2021/08/10 08:30:00;;;;;;;6.87;2.40;;;24.80;99.90;;;;;;4935864;29;20858;-82
2021/08/10 08:32:26;;;;;;;4.60;2.13;;;24.70;99.90;;;;;;4939682;29;20244;-80
2021/08/10 08:34:51;;;;;;;2.67;2.33;;;24.60;99.90;;;;;;4938689;29;20428;-81
2021/08/10 08:37:17;;;;;;;8.00;3.03;;;24.40;99.90;;;;;;4937195;29;20189;-82
2021/08/10 08:39:43;;;;;;;8.90;3.33;;;24.20;99.90;;;;;;4936650;29;20181;-80
2021/08/10 08:42:11;;;;;;;6.93;4.40;;;24.20;99.90;;;;;;4936762;29;20491;-81
2021/08/10 08:44:37;;;;;;;6.93;3.20;;;24.30;99.90;;;;;;4936653;29;20166;-82
2021/08/10 08:47:05;;;;;;;4.13;2.80;;;24.30;99.90;;;;;;4937216;29;20930;-82
2021/08/10 08:49:32;;;;;;;5.90;2.60;;;24.60;99.90;;;;;;4936772;29;20496;-81
2021/08/10 08:52:03;;;;;;;2.57;2.37;;;24.60;99.90;;;;;;4936385;29;20429;-82
2021/08/10 08:54:31;;;;;;;3.93;2.60;;;24.80;99.90;;;;;;4936366;29;20517;-82
2021/08/10 08:56:57;;;;;;;5.43;2.37;;;25.00;99.90;;;;;;4936386;29;20809;-82
2021/08/10 08:59:24;;;;;;;6.50;2.70;;;25.30;99.90;;;;;;4933465;29;20417;-82
2021/08/10 09:01:51;;;;;;;3.37;2.30;;;25.70;99.90;;;;;;4935470;29;20209;-82
2021/08/10 09:04:17;;;;;;;5.30;2.40;;;26.00;99.90;;;;;;4936634;29;20416;-82
2021/08/10 09:06:42;;;;;;;3.43;2.40;;;26.30;99.90;;;;;;4935742;29;20413;-80
2021/08/10 09:09:23;;;;;;;3.33;2.30;;;26.30;99.90;;;;;;4936190;29;20181;-80
2021/08/10 09:11:51;;;;;;;3.40;2.20;;;26.10;99.90;;;;;;4936583;29;20197;-80
2021/08/10 09:14:17;;;;;;;11.60;2.43;;;26.00;99.90;;;;;;4936093;29;20417;-80
2021/08/10 09:17:11;;;;;;;4.87;1.97;;;25.80;99.90;;;;;;4935537;29;20469;-80
2021/08/10 09:19:48;;;;;;;6.63;2.27;;;25.70;99.90;;;;;;4935775;29;20177;-80
2021/08/10 09:22:32;;;;;;;10.10;2.50;;;25.40;99.90;;;;;;4936352;29;20437;-79
2021/08/10 09:25:04;;;;;;;9.73;2.30;;;25.20;99.90;;;;;;4937201;29;20437;-80
2021/08/10 09:27:38;;;;;;;4.03;2.30;;;25.10;99.90;;;;;;4935599;29;20473;-80
2021/08/10 09:30:15;;;;;;;3.90;1.90;;;25.00;99.90;;;;;;4936198;29;20413;-80
2021/08/10 09:32:58;;;;;;;2.10;1.93;;;24.90;99.90;;;;;;4936141;29;20456;-80
2021/08/10 09:35:28;;;;;;;3.20;2.30;;;25.20;99.90;;;;;;4936445;29;20794;-80
2021/08/10 09:38:08;;;;;;;6.27;2.37;;;25.40;99.90;;;;;;4936310;29;20496;-80
2021/08/10 09:40:51;;;;;;;10.70;3.00;;;25.50;99.90;;;;;;4936284;29;20552;-79
2021/08/10 09:43:32;;;;;;;5.60;3.37;;;25.80;99.90;;;;;;4930638;29;20483;-73
2021/08/10 09:46:18;;;;;;;8.03;4.00;;;26.00;99.90;;;;;;4934398;29;20413;-74
2021/08/10 09:48:49;;;;;;;8.77;3.50;;;26.20;99.90;;;;;;4934605;29;20409;-74
2021/08/10 09:51:17;;;;;;;7.23;2.70;;;26.10;99.90;;;;;;4934657;29;20440;-74
2021/08/10 09:53:54;;;;;;;2.23;1.73;;;26.30;99.90;;;;;;4934234;29;20431;-74
2021/08/10 09:56:20;;;;;;;1.43;1.20;;;25.90;99.90;;;;;;4934175;29;20417;-74
2021/08/10 09:58:59;;;;;;;3.00;1.40;;;25.70;99.90;;;;;;4919799;29;20437;-74
2021/08/10 10:01:37;;;;;;;5.07;1.43;;;25.60;99.90;;;;;;4914997;29;20230;-74
2021/08/10 10:04:16;;;;;;;6.60;1.20;;;25.70;99.90;;;;;;4917483;29;20429;-75
2021/08/10 10:06:43;;;;;;;1.40;1.30;;;25.70;99.90;;;;;;4923752;29;20792;-74
2021/08/10 10:09:10;;;;;;;3.73;1.73;;;25.70;99.90;;;;;;4914194;29;20421;-74
2021/08/10 10:11:38;;;;;;;1.23;1.13;;;25.80;99.90;;;;;;4915335;29;20492;-74
2021/08/10 10:14:05;;;;;;;5.40;1.83;;;25.80;99.90;;;;;;4915092;29;20472;-74
2021/08/10 10:16:32;;;;;;;2.70;1.43;;;25.90;99.90;;;;;;4915674;29;20438;-74
2021/08/10 10:19:10;;;;;;;1.73;1.30;;;25.40;99.90;;;;;;4915151;29;20413;-74
2021/08/10 10:21:37;;;;;;;2.10;1.30;;;25.60;99.90;;;;;;4915270;29;20476;-74
2021/08/10 10:24:04;;;;;;;2.50;1.30;;;25.80;99.90;;;;;;4915235;29;20558;-73
2021/08/10 10:26:32;;;;;;;1.87;1.10;;;25.90;99.90;;;;;;4915366;29;20418;-74
2021/08/10 10:28:59;;;;;;;3.40;1.77;;;25.90;99.90;;;;;;4915106;29;20466;-74
2021/08/10 10:31:25;;;;;;;1.50;1.40;;;25.80;99.90;;;;;;4915049;29;20874;-75
2021/08/10 10:33:52;;;;;;;1.90;1.20;;;26.00;99.90;;;;;;4914931;29;20430;-74
2021/08/10 10:36:18;;;;;;;5.87;1.87;;;26.10;99.90;;;;;;4914383;29;20422;-74
2021/08/10 10:38:45;;;;;;;1.63;1.47;;;25.80;99.90;;;;;;4916465;29;20422;-74
2021/08/10 10:41:12;;;;;;;3.43;1.40;;;25.60;99.90;;;;;;4918800;29;20869;-75
2021/08/10 10:43:38;;;;;;;1.50;1.40;;;25.80;99.90;;;;;;4918650;29;20421;-75
2021/08/10 10:46:22;;;;;;;3.77;1.67;;;26.00;99.90;;;;;;4918847;29;20489;-74
2021/08/10 10:48:47;;;;;;;1.43;1.30;;;25.80;99.90;;;;;;4918613;29;20406;-74
2021/08/10 10:51:15;;;;;;;3.67;1.63;;;25.80;99.90;;;;;;4918649;29;20868;-74
2021/08/10 10:53:45;;;;;;;2.10;1.83;;;25.80;99.90;;;;;;4918349;29;20225;-74
2021/08/10 10:56:25;;;;;;;2.20;1.67;;;25.80;99.90;;;;;;4918554;29;20927;-74
2021/08/10 10:58:53;;;;;;;26.33;3.00;;;26.10;99.90;;;;;;4918543;29;20418;-74
2021/08/10 11:01:31;;;;;;;8.70;1.80;;;26.50;99.90;;;;;;4918410;29;20905;-74
2021/08/10 11:04:08;;;;;;;2.13;1.20;;;26.80;99.90;;;;;;4918335;29;20962;-75
2021/08/10 11:06:43;;;;;;;5.67;1.77;;;26.70;99.90;;;;;;4918791;29;20445;-74
2021/08/10 11:09:37;;;;;;;6.30;2.13;;;26.70;99.90;;;;;;4918604;29;20449;-73
2021/08/10 11:12:04;;;;;;;8.60;2.60;;;26.60;99.90;;;;;;4918256;29;20826;-74
2021/08/10 11:14:39;;;;;;;5.07;2.03;;;26.80;99.90;;;;;;4918188;29;20421;-73
2021/08/10 11:17:07;;;;;;;6.07;1.80;;;26.90;99.90;;;;;;4918169;29;20472;-74
2021/08/10 11:19:34;;;;;;;7.57;1.57;;;26.90;99.90;;;;;;4917691;29;20410;-72
2021/08/10 11:22:21;;;;;;;2.17;1.70;;;27.10;99.90;;;;;;4918221;29;20863;-72
2021/08/10 11:24:52;;;;;;;1.60;1.50;;;27.10;99.90;;;;;;4918283;29;20432;-72
2021/08/10 11:27:33;;;;;;;3.63;1.77;;;27.00;99.90;;;;;;4918423;29;20410;-73
2021/08/10 11:30:00;;;;;;;1.57;1.30;;;26.80;99.90;;;;;;4918008;29;20454;-73
2021/08/10 11:32:38;;;;;;;5.30;1.97;;;26.70;99.90;;;;;;4917990;29;20453;-72
2021/08/10 11:35:34;;;;;;;2.60;1.43;;;26.60;99.90;;;;;;4928041;29;20515;-72
2021/08/10 11:38:06;;;;;;;5.43;1.70;;;26.30;99.90;;;;;;4934434;29;20424;-73
2021/08/10 11:40:48;;;;;;;7.83;1.57;;;26.20;99.90;;;;;;4936819;29;20471;-73
2021/08/10 11:43:14;;;;;;;3.50;1.53;;;26.30;99.90;;;;;;4936859;29;20856;-73
2021/08/10 11:45:41;;;;;;;7.20;2.20;;;26.20;99.90;;;;;;4936706;29;20445;-74
2021/08/10 11:48:07;;;;;;;2.00;1.73;;;26.30;99.90;;;;;;4936817;29;20442;-74
2021/08/10 11:50:34;;;;;;;2.00;1.90;;;26.50;99.90;;;;;;4935970;29;20550;-74
2021/08/10 11:53:04;;;;;;;5.80;2.10;;;26.40;99.90;;;;;;4936463;29;20248;-74
2021/08/10 11:55:34;;;;;;;2.70;1.57;;;26.50;99.90;;;;;;4936750;29;20432;-75
2021/08/10 11:58:04;;;;;;;4.50;2.33;;;26.60;99.90;;;;;;4936537;29;20427;-74
2021/08/10 12:00:31;;;;;;;7.17;1.40;;;26.70;99.90;;;;;;4936654;29;20452;-74
2021/08/10 12:02:57;;;;;;;6.43;1.87;;;26.70;99.90;;;;;;4936001;29;20420;-73
2021/08/10 12:05:23;;;;;;;3.77;1.67;;;26.90;99.90;;;;;;4936679;29;20784;-74
2021/08/10 12:07:52;;;;;;;1.80;1.70;;;26.80;99.90;;;;;;4936237;29;20424;-74
2021/08/10 12:10:34;;;;;;;1.93;1.60;;;26.80;99.90;;;;;;4936653;29;20178;-74
2021/08/10 12:13:18;;;;;;;3.60;2.10;;;27.00;99.90;;;;;;4936344;29;20444;-73
2021/08/10 12:15:45;;;;;;;2.70;2.10;;;26.90;99.90;;;;;;4935853;29;20417;-73
2021/08/10 12:18:12;;;;;;;2.13;1.47;;;27.20;99.90;;;;;;4935757;29;20429;-73
2021/08/10 12:20:38;;;;;;;3.53;1.33;;;27.30;99.90;;;;;;4937770;29;21029;-72
2021/08/10 12:23:07;;;;;;;1.90;1.57;;;27.30;99.90;;;;;;4935870;29;20421;-72
2021/08/10 12:25:32;;;;;;;1.63;1.53;;;27.20;99.90;;;;;;4936244;29;20173;-73
2021/08/10 12:28:09;;;;;;;3.50;1.70;;;27.00;99.90;;;;;;4936302;29;20414;-73
2021/08/10 12:30:37;;;;;;;6.87;1.60;;;26.80;99.90;;;;;;4935614;29;20205;-74
2021/08/10 12:33:22;;;;;;;4.00;1.77;;;26.70;99.90;;;;;;4935262;29;20440;-75
2021/08/10 12:35:56;;;;;;;2.53;1.77;;;26.70;99.90;;;;;;4934989;29;20417;-75
2021/08/10 12:38:23;;;;;;;4.73;2.07;;;26.50;99.90;;;;;;4935558;29;20774;-74
2021/08/10 12:40:51;;;;;;;3.83;2.30;;;26.30;99.90;;;;;;4935194;29;20465;-74
2021/08/10 12:43:17;;;;;;;2.03;1.60;;;26.30;99.90;;;;;;4935949;29;20414;-75
2021/08/10 12:45:43;;;;;;;5.23;1.87;;;26.50;99.90;;;;;;4935651;29;20799;-73
2021/08/10 12:48:29;;;;;;;8.40;1.40;;;26.60;99.90;;;;;;4934418;29;20456;-73
2021/08/10 12:51:05;;;;;;;2.30;1.87;;;26.60;99.90;;;;;;4935376;29;20197;-74
2021/08/10 12:53:35;;;;;;;4.17;2.10;;;26.80;99.90;;;;;;4935290;29;20507;-73
2021/08/10 12:56:03;;;;;;;3.00;1.60;;;26.80;99.90;;;;;;4935687;29;20410;-73
2021/08/10 12:58:30;;;;;;;4.30;2.03;;;27.10;99.90;;;;;;4935149;29;20413;-73
2021/08/10 13:01:07;;;;;;;4.47;2.10;;;27.20;99.90;;;;;;4935276;29;20892;-73
2021/08/10 13:03:33;;;;;;;2.80;1.50;;;27.30;99.90;;;;;;4935069;29;20501;-73
2021/08/10 13:06:00;;;;;;;2.57;1.43;;;27.30;99.90;;;;;;4935470;29;20445;-74
2021/08/10 13:08:27;;;;;;;2.13;1.90;;;27.50;99.90;;;;;;4935241;29;20414;-72
2021/08/10 13:10:54;;;;;;;2.40;1.90;;;27.50;99.90;;;;;;4934607;29;20492;-75
2021/08/10 13:13:28;;;;;;;3.33;1.73;;;27.60;99.90;;;;;;4934989;29;20456;-73
2021/08/10 13:15:56;;;;;;;2.60;2.40;;;27.50;99.90;;;;;;4935270;29;20485;-73
2021/08/10 13:18:28;;;;;;;4.20;1.57;;;27.30;99.90;;;;;;4935161;29;20500;-73
2021/08/10 13:20:54;;;;;;;2.63;1.63;;;27.00;99.90;;;;;;4935052;29;20516;-74
2021/08/10 13:23:21;;;;;;;6.60;2.30;;;27.10;99.90;;;;;;4934973;29;20421;-73
2021/08/10 13:26:10;;;;;;;6.70;2.20;;;27.00;99.90;;;;;;4934675;29;20472;-73
2021/08/10 13:28:47;;;;;;;4.70;1.93;;;27.10;99.90;;;;;;4935012;29;20846;-73
2021/08/10 13:31:14;;;;;;;2.37;2.13;;;26.80;99.90;;;;;;4934785;29;20464;-74
2021/08/10 13:34:05;;;;;;;5.23;1.90;;;26.80;99.90;;;;;;4934400;29;20427;-73
2021/08/10 13:36:32;;;;;;;1.67;1.57;;;26.80;99.90;;;;;;4935041;29;20502;-71
2021/08/10 13:38:59;;;;;;;4.90;2.13;;;26.80;99.90;;;;;;4935260;29;20409;-74
2021/08/10 13:41:29;;;;;;;3.87;2.10;;;26.70;99.90;;;;;;4933289;29;21018;-74
2021/08/10 13:43:55;;;;;;;2.80;1.70;;;26.80;99.90;;;;;;4934726;29;20429;-74
2021/08/10 13:46:22;;;;;;;1.83;1.73;;;26.70;99.90;;;;;;4934913;29;20421;-73
2021/08/10 13:48:48;;;;;;;4.03;1.90;;;26.70;99.90;;;;;;4934809;29;20172;-73
2021/08/10 13:51:13;;;;;;;4.70;1.70;;;26.80;99.90;;;;;;4934944;29;20438;-73
2021/08/10 13:53:39;;;;;;;3.00;1.60;;;26.70;99.90;;;;;;4934411;29;20185;-74
2021/08/10 13:56:05;;;;;;;5.43;1.53;;;26.50;99.90;;;;;;4934778;29;20178;-74
2021/08/10 13:58:32;;;;;;;3.37;1.70;;;26.40;99.90;;;;;;4934722;29;20320;-75
2021/08/10 14:00:59;;;;;;;10.57;2.30;;;26.10;99.90;;;;;;4934740;29;20905;-74
2021/08/10 14:03:24;;;;;;;3.03;1.60;;;25.80;99.90;;;;;;4934094;29;20421;-71
2021/08/10 14:05:50;;;;;;;3.23;1.93;;;25.70;99.90;;;;;;4934574;29;20473;-73
2021/08/10 14:08:16;;;;;;;3.13;1.63;;;25.60;99.90;;;;;;4934558;29;20173;-73
2021/08/10 14:10:41;;;;;;;2.90;1.87;;;25.60;99.90;;;;;;4934343;29;20288;-73
2021/08/10 14:13:07;;;;;;;6.17;2.00;;;25.60;99.90;;;;;;4933916;29;20639;-72
2021/08/10 14:15:33;;;;;;;2.30;1.80;;;25.60;99.90;;;;;;4934375;29;20236;-73
2021/08/10 14:17:58;;;;;;;4.67;1.93;;;25.70;99.90;;;;;;4934540;29;20181;-73
2021/08/10 14:20:24;;;;;;;2.53;1.43;;;25.70;99.90;;;;;;4934270;29;20224;-73
2021/08/10 14:22:49;;;;;;;2.17;2.03;;;25.70;99.90;;;;;;4934244;29;20197;-73
2021/08/10 14:25:15;;;;;;;4.43;2.00;;;25.50;99.90;;;;;;4934458;29;20691;-71
2021/08/10 14:27:40;;;;;;;2.10;1.50;;;25.50;99.90;;;;;;4934328;29;20209;-74
2021/08/10 14:30:06;;;;;;;4.47;2.43;;;25.50;99.90;;;;;;4934278;29;20197;-74
2021/08/10 14:32:32;;;;;;;3.10;2.30;;;25.40;99.90;;;;;;4933637;29;20810;-72
2021/08/10 14:34:58;;;;;;;2.57;2.37;;;25.30;99.90;;;;;;4929718;29;20214;-73
2021/08/10 14:37:24;;;;;;;5.30;3.00;;;25.10;99.90;;;;;;4934038;29;20233;-73
2021/08/10 14:39:49;;;;;;;5.77;2.40;;;25.10;99.90;;;;;;4934089;29;20181;-73
2021/08/10 14:42:15;;;;;;;5.13;2.10;;;25.10;99.90;;;;;;4933969;29;20208;-74
2021/08/10 14:44:40;;;;;;;7.53;2.00;;;25.10;99.90;;;;;;4934120;29;20205;-74
2021/08/10 14:47:08;;;;;;;1.53;1.43;;;25.20;99.90;;;;;;4934119;29;20177;-74
2021/08/10 14:49:33;;;;;;;2.77;1.73;;;25.10;99.90;;;;;;4934090;29;20250;-75
2021/08/10 14:51:59;;;;;;;1.93;1.83;;;25.10;99.90;;;;;;4934033;29;20433;-74
2021/08/10 14:54:24;;;;;;;7.00;2.30;;;25.10;99.90;;;;;;4934067;29;20256;-75
2021/08/10 14:56:50;;;;;;;4.50;2.10;;;25.10;99.90;;;;;;4933901;29;20189;-75
2021/08/10 14:59:16;;;;;;;5.40;2.20;;;25.10;99.90;;;;;;4934216;29;20196;-75
2021/08/10 15:01:41;;;;;;;2.67;2.47;;;24.90;99.90;;;;;;4933800;29;20896;-77
2021/08/10 15:04:07;;;;;;;2.93;2.03;;;24.90;99.90;;;;;;4933768;29;20178;-75
2021/08/10 15:06:34;;;;;;;5.63;2.40;;;24.90;99.90;;;;;;4934059;29;20173;-77
2021/08/10 15:08:59;;;;;;;3.50;1.93;;;24.90;99.90;;;;;;4933942;29;20174;-76
2021/08/10 15:11:29;;;;;;;4.00;2.03;;;24.90;99.90;;;;;;4933311;29;20433;-76
2021/08/10 15:13:55;;;;;;;6.87;2.20;;;24.80;99.90;;;;;;4932560;29;20200;-77
2021/08/10 15:16:20;;;;;;;2.13;2.00;;;24.80;99.90;;;;;;4934018;29;20417;-76
2021/08/10 15:18:46;;;;;;;2.20;1.97;;;24.80;99.90;;;;;;4932421;29;20196;-76
2021/08/10 15:21:11;;;;;;;2.33;2.10;;;24.70;99.90;;;;;;4933836;29;20217;-76
2021/08/10 15:23:37;;;;;;;2.37;1.73;;;24.70;99.90;;;;;;4933415;29;20181;-76
2021/08/10 15:26:04;;;;;;;2.60;2.07;;;24.70;99.90;;;;;;4935751;29;20174;-76
2021/08/10 15:28:29;;;;;;;1.60;1.50;;;24.60;99.90;;;;;;4937366;29;20806;-76
2021/08/10 15:30:55;;;;;;;3.60;2.10;;;24.50;99.90;;;;;;4936955;29;20457;-76
2021/08/10 15:33:20;;;;;;;4.90;2.47;;;24.40;99.90;;;;;;4937069;29;20188;-76
2021/08/10 15:35:48;;;;;;;2.80;2.37;;;24.20;99.90;;;;;;4937050;29;20651;-75
2021/08/10 15:38:14;;;;;;;3.37;2.00;;;24.20;99.90;;;;;;4937337;29;20173;-76
2021/08/10 15:40:39;;;;;;;3.17;2.10;;;24.20;99.90;;;;;;4936643;29;20565;-76
2021/08/10 15:43:05;;;;;;;2.80;1.80;;;24.20;99.90;;;;;;4937025;29;20170;-76
2021/08/10 15:45:30;;;;;;;5.03;2.60;;;24.20;99.90;;;;;;4936945;29;20202;-76
2021/08/10 15:47:56;;;;;;;2.83;2.03;;;24.10;99.90;;;;;;4937035;29;20257;-76
2021/08/10 15:50:22;;;;;;;5.60;1.90;;;24.10;99.90;;;;;;4937073;29;20173;-75
2021/08/10 15:52:48;;;;;;;4.53;2.93;;;24.00;99.90;;;;;;4936748;29;20197;-76
2021/08/10 15:55:13;;;;;;;5.60;2.97;;;23.90;99.90;;;;;;4936747;29;20452;-76
2021/08/10 15:57:39;;;;;;;6.87;3.43;;;23.90;99.90;;;;;;4936622;29;20207;-74
2021/08/10 16:00:06;;;;;;;3.60;2.30;;;23.80;99.90;;;;;;4936852;29;20197;-75
2021/08/10 16:02:32;;;;;;;1.90;1.63;;;23.90;99.90;;;;;;4936385;29;20204;-75
2021/08/10 16:04:58;;;;;;;5.17;2.70;;;23.90;99.90;;;;;;4936704;29;20409;-76
2021/08/10 16:07:24;;;;;;;2.07;1.73;;;23.80;99.90;;;;;;4936776;29;20647;-77
2021/08/10 16:09:49;;;;;;;2.23;1.70;;;23.80;99.90;;;;;;4936821;29;20432;-74
2021/08/10 16:12:15;;;;;;;6.93;3.03;;;23.70;99.90;;;;;;4936511;29;20565;-76
2021/08/10 16:14:41;;;;;;;3.07;1.83;;;23.70;99.90;;;;;;4936292;29;20182;-76
2021/08/10 16:17:07;;;;;;;3.17;2.93;;;23.60;99.90;;;;;;4936517;29;20244;-76
2021/08/10 16:19:33;;;;;;;3.60;3.10;;;23.50;99.90;;;;;;4936113;29;20181;-76
2021/08/10 16:21:58;;;;;;;4.07;2.03;;;23.50;99.90;;;;;;4936223;29;20994;-74
2021/08/10 16:24:24;;;;;;;3.87;2.20;;;23.50;99.90;;;;;;4936048;29;20173;-75
2021/08/10 16:26:51;;;;;;;2.33;2.13;;;23.50;99.90;;;;;;4936297;29;20217;-75
2021/08/10 16:29:16;;;;;;;6.20;2.07;;;23.50;99.90;;;;;;4935083;29;20188;-72
2021/08/10 16:31:42;;;;;;;3.77;2.00;;;23.50;99.90;;;;;;4935875;29;20448;-74
2021/08/10 16:34:07;;;;;;;3.90;2.50;;;23.40;99.90;;;;;;4936224;29;20192;-73
2021/08/10 16:36:33;;;;;;;3.03;2.70;;;23.40;99.90;;;;;;4935801;29;20209;-73
2021/08/10 16:38:58;;;;;;;4.93;1.93;;;23.50;99.90;;;;;;4936184;29;20181;-74
2021/08/10 16:41:25;;;;;;;2.10;1.67;;;23.50;99.90;;;;;;4936047;29;20350;-74
2021/08/10 16:43:50;;;;;;;3.40;2.07;;;23.40;99.90;;;;;;4934660;29;20177;-73
2021/08/10 16:46:16;;;;;;;4.10;1.97;;;23.30;99.90;;;;;;4935968;29;20409;-73
2021/08/10 16:48:41;;;;;;;3.67;1.90;;;23.20;99.90;;;;;;4935790;29;20258;-73
2021/08/10 16:51:07;;;;;;;4.80;1.93;;;23.20;99.90;;;;;;4935922;29;20276;-74
2021/08/10 16:53:33;;;;;;;3.03;1.97;;;23.20;99.90;;;;;;4935615;29;20213;-73
2021/08/10 16:55:58;;;;;;;4.63;2.30;;;23.10;99.90;;;;;;4935939;29;20819;-73
2021/08/10 16:58:24;;;;;;;2.60;1.90;;;23.10;99.90;;;;;;4936111;29;20187;-71
2021/08/10 17:00:50;;;;;;;3.97;2.37;;;23.10;99.90;;;;;;4935705;29;20235;-73
2021/08/10 17:03:17;;;;;;;6.77;2.40;;;23.10;99.90;;;;;;4935284;29;20249;-73
2021/08/10 17:05:43;;;;;;;4.60;3.70;;;23.10;99.90;;;;;;4935664;29;20414;-72
2021/08/10 17:08:09;;;;;;;5.53;4.00;;;23.10;99.90;;;;;;4935481;29;20420;-73
2021/08/10 17:10:35;;;;;;;6.50;3.73;;;23.00;99.90;;;;;;4935697;29;20177;-73
2021/08/10 17:13:01;;;;;;;2.43;2.20;;;23.00;99.90;;;;;;4935259;29;20173;-72
2021/08/10 17:15:28;;;;;;;3.20;2.50;;;23.00;99.90;;;;;;4935701;29;20457;-73
2021/08/10 17:17:54;;;;;;;3.30;2.03;;;22.90;99.90;;;;;;4935357;29;20839;-74
2021/08/10 17:20:20;;;;;;;4.53;3.17;;;22.90;99.90;;;;;;4935689;29;20512;-73